sensor_id;sensor_type;location;lat;lon;timestamp;pressure;altitude;pressure_sealevel;temperature
74485;BMP280;62942;52.462;10.846;2023-11-19T00:00:02;100280;;;
74485;BMP280;62942;52.462;10.846;2023-11-19T00:01:02;100270;;;
74485;BMP280;62942;52.462;10.846;2023-11-19T00:02:12;100270;;;
74485;BMP280;62942;52.462;10.846;2023-11-19T00:03:12;100280;;;
74485;BMP280;62942;52.462;10.846;2023-11-19T00:04:22;100270;;;
74485;BMP280;62942;52.462;10.846;2023-11-19T00:05:22;100270;;;
74485;BMP280;62942;52.462;10.846;2023-11-19T00:06:32;100260;;;
74485;BMP280;62942;52.462;10.846;2023-11-19T00:07:42;100260;;;
74485;BMP280;62942;52.462;10.846;2023-11-19T00:08:42;100260;;;
74485;BMP280;62942;52.462;10.846;2023-11-19T00:09:42;100250;;;
74485;BMP280;62942;52.462;10.846;2023-11-19T00:10:52;100250;;;
74485;BMP280;62942;52.462;10.846;2023-11-19T00:12:02;100250;;;
74485;BMP280;62942;52.462;10.846;2023-11-19T00:13:02;100240;;;
74485;BMP280;62942;52.462;10.846;2023-11-19T00:14:12;100240;;;
74485;BMP280;62942;52.462;10.846;2023-11-19T00:15:22;100240;;;
74485;BMP280;62942;52.462;10.846;2023-11-19T00:16:22;100240;;;
74485;BMP280;62942;52.462;10.846;2023-11-19T00:17:32;100240;;;
74485;BMP280;62942;52.462;10.846;2023-11-19T00:18:32;100250;;;
74485;BMP280;62942;52.462;10.846;2023-11-19T00:19:42;100240;;;
74485;BMP280;62942;52.462;10.846;2023-11-19T00:20:42;100240;;;
74485;BMP280;62942;52.462;10.846;2023-11-19T00:21:52;100240;;;
74485;BMP280;62942;52.462;10.846;2023-11-19T00:22:52;100240;;;
74485;BMP280;62942;52.462;10.846;2023-11-19T00:23:52;100240;;;
74485;BMP280;62942;52.462;10.846;2023-11-19T00:24:52;100240;;;
74485;BMP280;62942;52.462;10.846;2023-11-19T00:26:02;100230;;;
74485;BMP280;62942;52.462;10.846;2023-11-19T00:27:12;100230;;;
74485;BMP280;62942;52.462;10.846;2023-11-19T00:28:12;100230;;;
74485;BMP280;62942;52.462;10.846;2023-11-19T00:29:22;100220;;;
74485;BMP280;62942;52.462;10.846;2023-11-19T00:30:22;100220;;;
74485;BMP280;62942;52.462;10.846;2023-11-19T00:31:32;100220;;;
74485;BMP280;62942;52.462;10.846;2023-11-19T00:32:42;100210;;;
74485;BMP280;62942;52.462;10.846;2023-11-19T00:33:42;100210;;;
74485;BMP280;62942;52.462;10.846;2023-11-19T00:34:52;100220;;;
74485;BMP280;62942;52.462;10.846;2023-11-19T00:35:52;100220;;;
74485;BMP280;62942;52.462;10.846;2023-11-19T00:37:02;100210;;;
74485;BMP280;62942;52.462;10.846;2023-11-19T00:38:02;100210;;;
74485;BMP280;62942;52.462;10.846;2023-11-19T00:39:12;100210;;;
74485;BMP280;62942;52.462;10.846;2023-11-19T00:40:22;100210;;;
74485;BMP280;62942;52.462;10.846;2023-11-19T00:41:32;100200;;;
74485;BMP280;62942;52.462;10.846;2023-11-19T00:42:32;100200;;;
74485;BMP280;62942;52.462;10.846;2023-11-19T00:43:32;100190;;;
74485;BMP280;62942;52.462;10.846;2023-11-19T00:44:42;100190;;;
74485;BMP280;62942;52.462;10.846;2023-11-19T00:45:42;100180;;;
74485;BMP280;62942;52.462;10.846;2023-11-19T00:46:42;100170;;;
74485;BMP280;62942;52.462;10.846;2023-11-19T00:47:52;100160;;;
74485;BMP280;62942;52.462;10.846;2023-11-19T00:48:52;100160;;;
74485;BMP280;62942;52.462;10.846;2023-11-19T00:50:02;100160;;;
74485;BMP280;62942;52.462;10.846;2023-11-19T00:51:12;100160;;;
74485;BMP280;62942;52.462;10.846;2023-11-19T00:52:12;100160;;;
74485;BMP280;62942;52.462;10.846;2023-11-19T00:53:22;100150;;;
74485;BMP280;62942;52.462;10.846;2023-11-19T00:54:22;100160;;;
74485;BMP280;62942;52.462;10.846;2023-11-19T00:55:22;100150;;;
74485;BMP280;62942;52.462;10.846;2023-11-19T00:56:32;100150;;;
74485;BMP280;62942;52.462;10.846;2023-11-19T00:57:42;100150;;;
74485;BMP280;62942;52.462;10.846;2023-11-19T00:58:42;100150;;;
74485;BMP280;62942;52.462;10.846;2023-11-19T00:59:52;100150;;;
74485;BMP280;62942;52.462;10.846;2023-11-19T01:00:52;100150;;;
74485;BMP280;62942;52.462;10.846;2023-11-19T01:02:02;100140;;;
74485;BMP280;62942;52.462;10.846;2023-11-19T01:03:02;100140;;;
74485;BMP280;62942;52.462;10.846;2023-11-19T01:04:12;100130;;;
74485;BMP280;62942;52.462;10.846;2023-11-19T01:05:12;100130;;;
74485;BMP280;62942;52.462;10.846;2023-11-19T01:06:12;100120;;;
74485;BMP280;62942;52.462;10.846;2023-11-19T01:07:22;100120;;;
74485;BMP280;62942;52.462;10.846;2023-11-19T01:08:22;100110;;;
74485;BMP280;62942;52.462;10.846;2023-11-19T01:09:32;100110;;;
74485;BMP280;62942;52.462;10.846;2023-11-19T01:10:42;100100;;;
74485;BMP280;62942;52.462;10.846;2023-11-19T01:11:42;100100;;;
74485;BMP280;62942;52.462;10.846;2023-11-19T01:12:52;100100;;;
74485;BMP280;62942;52.462;10.846;2023-11-19T01:13:52;100100;;;
74485;BMP280;62942;52.462;10.846;2023-11-19T01:15:02;100110;;;
74485;BMP280;62942;52.462;10.846;2023-11-19T01:16:12;100100;;;
74485;BMP280;62942;52.462;10.846;2023-11-19T01:17:12;100100;;;
74485;BMP280;62942;52.462;10.846;2023-11-19T01:18:12;100100;;;
74485;BMP280;62942;52.462;10.846;2023-11-19T01:19:22;100110;;;
74485;BMP280;62942;52.462;10.846;2023-11-19T01:20:32;100100;;;
74485;BMP280;62942;52.462;10.846;2023-11-19T01:21:32;100100;;;
74485;BMP280;62942;52.462;10.846;2023-11-19T01:22:32;100100;;;
74485;BMP280;62942;52.462;10.846;2023-11-19T01:23:42;100100;;;
74485;BMP280;62942;52.462;10.846;2023-11-19T01:24:42;100100;;;
74485;BMP280;62942;52.462;10.846;2023-11-19T01:25:52;100090;;;
74485;BMP280;62942;52.462;10.846;2023-11-19T01:27:02;100080;;;
74485;BMP280;62942;52.462;10.846;2023-11-19T01:28:12;100070;;;
74485;BMP280;62942;52.462;10.846;2023-11-19T01:29:12;100080;;;
74485;BMP280;62942;52.462;10.846;2023-11-19T01:30:12;100070;;;
74485;BMP280;62942;52.462;10.846;2023-11-19T01:31:22;100060;;;
74485;BMP280;62942;52.462;10.846;2023-11-19T01:32:22;100060;;;
74485;BMP280;62942;52.462;10.846;2023-11-19T01:33:32;100050;;;
74485;BMP280;62942;52.462;10.846;2023-11-19T01:34:32;100050;;;
74485;BMP280;62942;52.462;10.846;2023-11-19T01:35:42;100050;;;
74485;BMP280;62942;52.462;10.846;2023-11-19T01:36:42;100050;;;
74485;BMP280;62942;52.462;10.846;2023-11-19T01:37:52;100070;;;
74485;BMP280;62942;52.462;10.846;2023-11-19T01:38:52;100060;;;
74485;BMP280;62942;52.462;10.846;2023-11-19T01:39:52;100050;;;
74485;BMP280;62942;52.462;10.846;2023-11-19T01:41:02;100040;;;
74485;BMP280;62942;52.462;10.846;2023-11-19T01:42:12;100040;;;
74485;BMP280;62942;52.462;10.846;2023-11-19T01:43:38;100040;;;
74485;BMP280;62942;52.462;10.846;2023-11-19T01:44:22;100040;;;
74485;BMP280;62942;52.462;10.846;2023-11-19T01:45:30;100040;;;
74485;BMP280;62942;52.462;10.846;2023-11-19T01:46:22;100030;;;
74485;BMP280;62942;52.462;10.846;2023-11-19T01:47:32;100030;;;
74485;BMP280;62942;52.462;10.846;2023-11-19T01:48:32;100030;;;
74485;BMP280;62942;52.462;10.846;2023-11-19T01:49:42;100040;;;
74485;BMP280;62942;52.462;10.846;2023-11-19T01:50:42;100030;;;
74485;BMP280;62942;52.462;10.846;2023-11-19T01:51:42;100020;;;
74485;BMP280;62942;52.462;10.846;2023-11-19T01:52:52;100020;;;
74485;BMP280;62942;52.462;10.846;2023-11-19T01:53:52;100020;;;
74485;BMP280;62942;52.462;10.846;2023-11-19T01:55:02;100010;;;
74485;BMP280;62942;52.462;10.846;2023-11-19T01:56:13;100010;;;
74485;BMP280;62942;52.462;10.846;2023-11-19T01:57:12;100000;;;
74485;BMP280;62942;52.462;10.846;2023-11-19T01:58:22;100000;;;
74485;BMP280;62942;52.462;10.846;2023-11-19T01:59:32;100000;;;
74485;BMP280;62942;52.462;10.846;2023-11-19T02:00:32;99990;;;
74485;BMP280;62942;52.462;10.846;2023-11-19T02:01:32;99990;;;
74485;BMP280;62942;52.462;10.846;2023-11-19T02:02:42;99990;;;
74485;BMP280;62942;52.462;10.846;2023-11-19T02:03:42;99990;;;
74485;BMP280;62942;52.462;10.846;2023-11-19T02:04:52;99990;;;
74485;BMP280;62942;52.462;10.846;2023-11-19T02:06:02;99980;;;
74485;BMP280;62942;52.462;10.846;2023-11-19T02:07:12;99980;;;
74485;BMP280;62942;52.462;10.846;2023-11-19T02:08:22;99980;;;
74485;BMP280;62942;52.462;10.846;2023-11-19T02:09:32;99980;;;
74485;BMP280;62942;52.462;10.846;2023-11-19T02:10:32;99980;;;
74485;BMP280;62942;52.462;10.846;2023-11-19T02:11:42;99980;;;
74485;BMP280;62942;52.462;10.846;2023-11-19T02:12:52;99980;;;
74485;BMP280;62942;52.462;10.846;2023-11-19T02:13:52;99980;;;
74485;BMP280;62942;52.462;10.846;2023-11-19T02:15:02;99980;;;
74485;BMP280;62942;52.462;10.846;2023-11-19T02:16:12;99970;;;
74485;BMP280;62942;52.462;10.846;2023-11-19T02:17:25;99970;;;
74485;BMP280;62942;52.462;10.846;2023-11-19T02:18:32;99960;;;
74485;BMP280;62942;52.462;10.846;2023-11-19T02:19:32;99960;;;
74485;BMP280;62942;52.462;10.846;2023-11-19T02:20:42;99950;;;
74485;BMP280;62942;52.462;10.846;2023-11-19T02:21:52;99960;;;
74485;BMP280;62942;52.462;10.846;2023-11-19T02:23:02;99950;;;
74485;BMP280;62942;52.462;10.846;2023-11-19T02:24:13;99950;;;
74485;BMP280;62942;52.462;10.846;2023-11-19T02:25:22;99950;;;
74485;BMP280;62942;52.462;10.846;2023-11-19T02:26:33;99940;;;
74485;BMP280;62942;52.462;10.846;2023-11-19T02:27:46;99940;;;
74485;BMP280;62942;52.462;10.846;2023-11-19T02:28:52;99940;;;
74485;BMP280;62942;52.462;10.846;2023-11-19T02:30:02;99940;;;
74485;BMP280;62942;52.462;10.846;2023-11-19T02:31:12;99940;;;
74485;BMP280;62942;52.462;10.846;2023-11-19T02:32:22;99940;;;
74485;BMP280;62942;52.462;10.846;2023-11-19T02:33:22;99930;;;
74485;BMP280;62942;52.462;10.846;2023-11-19T02:34:32;99940;;;
74485;BMP280;62942;52.462;10.846;2023-11-19T02:35:32;99930;;;
74485;BMP280;62942;52.462;10.846;2023-11-19T02:36:42;99930;;;
74485;BMP280;62942;52.462;10.846;2023-11-19T02:37:52;99940;;;
74485;BMP280;62942;52.462;10.846;2023-11-19T02:39:02;99930;;;
74485;BMP280;62942;52.462;10.846;2023-11-19T02:40:12;99940;;;
74485;BMP280;62942;52.462;10.846;2023-11-19T02:41:22;99930;;;
74485;BMP280;62942;52.462;10.846;2023-11-19T02:42:32;99930;;;
74485;BMP280;62942;52.462;10.846;2023-11-19T02:43:32;99920;;;
74485;BMP280;62942;52.462;10.846;2023-11-19T02:44:43;99920;;;
74485;BMP280;62942;52.462;10.846;2023-11-19T02:45:52;99920;;;
74485;BMP280;62942;52.462;10.846;2023-11-19T02:47:02;99920;;;
74485;BMP280;62942;52.462;10.846;2023-11-19T02:48:12;99920;;;
74485;BMP280;62942;52.462;10.846;2023-11-19T02:49:22;99910;;;
74485;BMP280;62942;52.462;10.846;2023-11-19T02:50:32;99890;;;
74485;BMP280;62942;52.462;10.846;2023-11-19T02:51:32;99890;;;
74485;BMP280;62942;52.462;10.846;2023-11-19T02:52:43;99890;;;
74485;BMP280;62942;52.462;10.846;2023-11-19T02:53:42;99890;;;
74485;BMP280;62942;52.462;10.846;2023-11-19T02:54:52;99890;;;
74485;BMP280;62942;52.462;10.846;2023-11-19T02:56:02;99900;;;
74485;BMP280;62942;52.462;10.846;2023-11-19T02:57:02;99900;;;
74485;BMP280;62942;52.462;10.846;2023-11-19T02:58:12;99900;;;
74485;BMP280;62942;52.462;10.846;2023-11-19T02:59:22;99900;;;
74485;BMP280;62942;52.462;10.846;2023-11-19T03:00:32;99890;;;
74485;BMP280;62942;52.462;10.846;2023-11-19T03:01:32;99890;;;
74485;BMP280;62942;52.462;10.846;2023-11-19T03:02:42;99880;;;
74485;BMP280;62942;52.462;10.846;2023-11-19T03:03:52;99870;;;
74485;BMP280;62942;52.462;10.846;2023-11-19T03:05:02;99870;;;
74485;BMP280;62942;52.462;10.846;2023-11-19T03:06:12;99860;;;
74485;BMP280;62942;52.462;10.846;2023-11-19T03:07:12;99860;;;
74485;BMP280;62942;52.462;10.846;2023-11-19T03:08:22;99860;;;
74485;BMP280;62942;52.462;10.846;2023-11-19T03:09:22;99860;;;
74485;BMP280;62942;52.462;10.846;2023-11-19T03:10:32;99870;;;
74485;BMP280;62942;52.462;10.846;2023-11-19T03:11:32;99870;;;
74485;BMP280;62942;52.462;10.846;2023-11-19T03:12:43;99860;;;
74485;BMP280;62942;52.462;10.846;2023-11-19T03:13:52;99850;;;
74485;BMP280;62942;52.462;10.846;2023-11-19T03:15:02;99840;;;
74485;BMP280;62942;52.462;10.846;2023-11-19T03:16:12;99850;;;
74485;BMP280;62942;52.462;10.846;2023-11-19T03:17:12;99840;;;
74485;BMP280;62942;52.462;10.846;2023-11-19T03:18:22;99850;;;
74485;BMP280;62942;52.462;10.846;2023-11-19T03:19:32;99850;;;
74485;BMP280;62942;52.462;10.846;2023-11-19T03:20:32;99850;;;
74485;BMP280;62942;52.462;10.846;2023-11-19T03:21:42;99850;;;
74485;BMP280;62942;52.462;10.846;2023-11-19T03:22:52;99840;;;
74485;BMP280;62942;52.462;10.846;2023-11-19T03:23:52;99830;;;
74485;BMP280;62942;52.462;10.846;2023-11-19T03:25:02;99840;;;
74485;BMP280;62942;52.462;10.846;2023-11-19T03:26:02;99840;;;
74485;BMP280;62942;52.462;10.846;2023-11-19T03:27:12;99830;;;
74485;BMP280;62942;52.462;10.846;2023-11-19T03:28:22;99820;;;
74485;BMP280;62942;52.462;10.846;2023-11-19T03:29:22;99810;;;
74485;BMP280;62942;52.462;10.846;2023-11-19T03:30:32;99800;;;
74485;BMP280;62942;52.462;10.846;2023-11-19T03:31:42;99800;;;
74485;BMP280;62942;52.462;10.846;2023-11-19T03:32:52;99790;;;
74485;BMP280;62942;52.462;10.846;2023-11-19T03:34:02;99800;;;
74485;BMP280;62942;52.462;10.846;2023-11-19T03:35:02;99800;;;
74485;BMP280;62942;52.462;10.846;2023-11-19T03:36:12;99800;;;
74485;BMP280;62942;52.462;10.846;2023-11-19T03:37:22;99810;;;
74485;BMP280;62942;52.462;10.846;2023-11-19T03:38:32;99800;;;
74485;BMP280;62942;52.462;10.846;2023-11-19T03:39:42;99800;;;
74485;BMP280;62942;52.462;10.846;2023-11-19T03:40:52;99800;;;
74485;BMP280;62942;52.462;10.846;2023-11-19T03:41:52;99800;;;
74485;BMP280;62942;52.462;10.846;2023-11-19T03:43:02;99800;;;
74485;BMP280;62942;52.462;10.846;2023-11-19T03:44:12;99790;;;
74485;BMP280;62942;52.462;10.846;2023-11-19T03:45:22;99790;;;
74485;BMP280;62942;52.462;10.846;2023-11-19T03:46:22;99780;;;
74485;BMP280;62942;52.462;10.846;2023-11-19T03:47:22;99790;;;
74485;BMP280;62942;52.462;10.846;2023-11-19T03:48:32;99800;;;
74485;BMP280;62942;52.462;10.846;2023-11-19T03:49:32;99790;;;
74485;BMP280;62942;52.462;10.846;2023-11-19T03:50:42;99790;;;
74485;BMP280;62942;52.462;10.846;2023-11-19T03:51:52;99800;;;
74485;BMP280;62942;52.462;10.846;2023-11-19T03:53:02;99800;;;
74485;BMP280;62942;52.462;10.846;2023-11-19T03:54:12;99790;;;
74485;BMP280;62942;52.462;10.846;2023-11-19T03:55:22;99780;;;
74485;BMP280;62942;52.462;10.846;2023-11-19T03:56:22;99780;;;
74485;BMP280;62942;52.462;10.846;2023-11-19T03:57:32;99770;;;
74485;BMP280;62942;52.462;10.846;2023-11-19T03:58:42;99780;;;
74485;BMP280;62942;52.462;10.846;2023-11-19T03:59:52;99780;;;
74485;BMP280;62942;52.462;10.846;2023-11-19T04:01:02;99780;;;
74485;BMP280;62942;52.462;10.846;2023-11-19T04:02:12;99780;;;
74485;BMP280;62942;52.462;10.846;2023-11-19T04:03:12;99780;;;
74485;BMP280;62942;52.462;10.846;2023-11-19T04:04:22;99780;;;
74485;BMP280;62942;52.462;10.846;2023-11-19T04:05:22;99780;;;
74485;BMP280;62942;52.462;10.846;2023-11-19T04:06:32;99790;;;
74485;BMP280;62942;52.462;10.846;2023-11-19T04:07:42;99790;;;
74485;BMP280;62942;52.462;10.846;2023-11-19T04:08:52;99790;;;
74485;BMP280;62942;52.462;10.846;2023-11-19T04:10:02;99790;;;
74485;BMP280;62942;52.462;10.846;2023-11-19T04:11:12;99780;;;
74485;BMP280;62942;52.462;10.846;2023-11-19T04:12:22;99780;;;
74485;BMP280;62942;52.462;10.846;2023-11-19T04:13:22;99780;;;
74485;BMP280;62942;52.462;10.846;2023-11-19T04:14:22;99780;;;
74485;BMP280;62942;52.462;10.846;2023-11-19T04:15:32;99770;;;
74485;BMP280;62942;52.462;10.846;2023-11-19T04:16:32;99770;;;
74485;BMP280;62942;52.462;10.846;2023-11-19T04:17:42;99770;;;
74485;BMP280;62942;52.462;10.846;2023-11-19T04:18:52;99770;;;
74485;BMP280;62942;52.462;10.846;2023-11-19T04:20:02;99770;;;
74485;BMP280;62942;52.462;10.846;2023-11-19T04:21:05;99770;;;
74485;BMP280;62942;52.462;10.846;2023-11-19T04:22:12;99760;;;
74485;BMP280;62942;52.462;10.846;2023-11-19T04:23:12;99760;;;
74485;BMP280;62942;52.462;10.846;2023-11-19T04:24:13;99770;;;
74485;BMP280;62942;52.462;10.846;2023-11-19T04:25:22;99770;;;
74485;BMP280;62942;52.462;10.846;2023-11-19T04:26:22;99760;;;
74485;BMP280;62942;52.462;10.846;2023-11-19T04:27:22;99760;;;
74485;BMP280;62942;52.462;10.846;2023-11-19T04:28:32;99760;;;
74485;BMP280;62942;52.462;10.846;2023-11-19T04:29:32;99770;;;
74485;BMP280;62942;52.462;10.846;2023-11-19T04:30:42;99750;;;
74485;BMP280;62942;52.462;10.846;2023-11-19T04:31:52;99750;;;
74485;BMP280;62942;52.462;10.846;2023-11-19T04:33:02;99750;;;
74485;BMP280;62942;52.462;10.846;2023-11-19T04:34:02;99750;;;
74485;BMP280;62942;52.462;10.846;2023-11-19T04:35:13;99750;;;
74485;BMP280;62942;52.462;10.846;2023-11-19T04:36:12;99750;;;
74485;BMP280;62942;52.462;10.846;2023-11-19T04:37:12;99750;;;
74485;BMP280;62942;52.462;10.846;2023-11-19T04:38:22;99750;;;
74485;BMP280;62942;52.462;10.846;2023-11-19T04:39:32;99750;;;
74485;BMP280;62942;52.462;10.846;2023-11-19T04:40:32;99750;;;
74485;BMP280;62942;52.462;10.846;2023-11-19T04:41:32;99750;;;
74485;BMP280;62942;52.462;10.846;2023-11-19T04:42:42;99740;;;
74485;BMP280;62942;52.462;10.846;2023-11-19T04:43:52;99740;;;
74485;BMP280;62942;52.462;10.846;2023-11-19T04:44:52;99750;;;
74485;BMP280;62942;52.462;10.846;2023-11-19T04:46:03;99740;;;
74485;BMP280;62942;52.462;10.846;2023-11-19T04:47:12;99740;;;
74485;BMP280;62942;52.462;10.846;2023-11-19T04:48:22;99740;;;
74485;BMP280;62942;52.462;10.846;2023-11-19T04:49:22;99740;;;
74485;BMP280;62942;52.462;10.846;2023-11-19T04:50:22;99750;;;
74485;BMP280;62942;52.462;10.846;2023-11-19T04:51:37;99740;;;
74485;BMP280;62942;52.462;10.846;2023-11-19T04:52:42;99750;;;
74485;BMP280;62942;52.462;10.846;2023-11-19T04:53:42;99750;;;
74485;BMP280;62942;52.462;10.846;2023-11-19T04:54:42;99750;;;
74485;BMP280;62942;52.462;10.846;2023-11-19T04:55:52;99750;;;
74485;BMP280;62942;52.462;10.846;2023-11-19T04:57:02;99740;;;
74485;BMP280;62942;52.462;10.846;2023-11-19T04:58:02;99740;;;
74485;BMP280;62942;52.462;10.846;2023-11-19T04:59:02;99740;;;
74485;BMP280;62942;52.462;10.846;2023-11-19T05:00:12;99750;;;
74485;BMP280;62942;52.462;10.846;2023-11-19T05:01:22;99750;;;
74485;BMP280;62942;52.462;10.846;2023-11-19T05:02:22;99740;;;
74485;BMP280;62942;52.462;10.846;2023-11-19T05:03:32;99750;;;
74485;BMP280;62942;52.462;10.846;2023-11-19T05:04:42;99740;;;
74485;BMP280;62942;52.462;10.846;2023-11-19T05:05:52;99750;;;
74485;BMP280;62942;52.462;10.846;2023-11-19T05:06:52;99730;;;
74485;BMP280;62942;52.462;10.846;2023-11-19T05:08:02;99740;;;
74485;BMP280;62942;52.462;10.846;2023-11-19T05:09:02;99740;;;
74485;BMP280;62942;52.462;10.846;2023-11-19T05:10:12;99740;;;
74485;BMP280;62942;52.462;10.846;2023-11-19T05:11:22;99740;;;
74485;BMP280;62942;52.462;10.846;2023-11-19T05:12:22;99740;;;
74485;BMP280;62942;52.462;10.846;2023-11-19T05:13:32;99740;;;
74485;BMP280;62942;52.462;10.846;2023-11-19T05:14:32;99740;;;
74485;BMP280;62942;52.462;10.846;2023-11-19T05:15:42;99740;;;
74485;BMP280;62942;52.462;10.846;2023-11-19T05:16:42;99730;;;
74485;BMP280;62942;52.462;10.846;2023-11-19T05:17:42;99730;;;
74485;BMP280;62942;52.462;10.846;2023-11-19T05:18:42;99720;;;
74485;BMP280;62942;52.462;10.846;2023-11-19T05:19:52;99740;;;
74485;BMP280;62942;52.462;10.846;2023-11-19T05:20:52;99740;;;
74485;BMP280;62942;52.462;10.846;2023-11-19T05:22:02;99740;;;
74485;BMP280;62942;52.462;10.846;2023-11-19T05:23:02;99750;;;
74485;BMP280;62942;52.462;10.846;2023-11-19T05:24:12;99740;;;
74485;BMP280;62942;52.462;10.846;2023-11-19T05:25:22;99740;;;
74485;BMP280;62942;52.462;10.846;2023-11-19T05:26:23;99740;;;
74485;BMP280;62942;52.462;10.846;2023-11-19T05:27:32;99740;;;
74485;BMP280;62942;52.462;10.846;2023-11-19T05:28:42;99740;;;
74485;BMP280;62942;52.462;10.846;2023-11-19T05:29:42;99740;;;
74485;BMP280;62942;52.462;10.846;2023-11-19T05:30:52;99720;;;
74485;BMP280;62942;52.462;10.846;2023-11-19T05:31:52;99720;;;
74485;BMP280;62942;52.462;10.846;2023-11-19T05:32:52;99730;;;
74485;BMP280;62942;52.462;10.846;2023-11-19T05:34:02;99730;;;
74485;BMP280;62942;52.462;10.846;2023-11-19T05:35:12;99720;;;
74485;BMP280;62942;52.462;10.846;2023-11-19T05:36:12;99730;;;
74485;BMP280;62942;52.462;10.846;2023-11-19T05:37:12;99720;;;
74485;BMP280;62942;52.462;10.846;2023-11-19T05:38:12;99710;;;
74485;BMP280;62942;52.462;10.846;2023-11-19T05:39:22;99710;;;
74485;BMP280;62942;52.462;10.846;2023-11-19T05:40:32;99710;;;
74485;BMP280;62942;52.462;10.846;2023-11-19T05:41:32;99710;;;
74485;BMP280;62942;52.462;10.846;2023-11-19T05:42:42;99720;;;
74485;BMP280;62942;52.462;10.846;2023-11-19T05:43:52;99710;;;
74485;BMP280;62942;52.462;10.846;2023-11-19T05:44:52;99720;;;
74485;BMP280;62942;52.462;10.846;2023-11-19T05:46:02;99720;;;
74485;BMP280;62942;52.462;10.846;2023-11-19T05:47:13;99710;;;
74485;BMP280;62942;52.462;10.846;2023-11-19T05:48:12;99700;;;
74485;BMP280;62942;52.462;10.846;2023-11-19T05:49:22;99710;;;
74485;BMP280;62942;52.462;10.846;2023-11-19T05:50:24;99710;;;
74485;BMP280;62942;52.462;10.846;2023-11-19T05:51:32;99710;;;
74485;BMP280;62942;52.462;10.846;2023-11-19T05:52:32;99700;;;
74485;BMP280;62942;52.462;10.846;2023-11-19T05:53:42;99710;;;
74485;BMP280;62942;52.462;10.846;2023-11-19T05:54:52;99710;;;
74485;BMP280;62942;52.462;10.846;2023-11-19T05:55:52;99700;;;
74485;BMP280;62942;52.462;10.846;2023-11-19T05:57:02;99700;;;
74485;BMP280;62942;52.462;10.846;2023-11-19T05:58:02;99710;;;
74485;BMP280;62942;52.462;10.846;2023-11-19T05:59:02;99700;;;
74485;BMP280;62942;52.462;10.846;2023-11-19T06:00:12;99700;;;
74485;BMP280;62942;52.462;10.846;2023-11-19T06:01:12;99690;;;
74485;BMP280;62942;52.462;10.846;2023-11-19T06:02:22;99680;;;
74485;BMP280;62942;52.462;10.846;2023-11-19T06:03:32;99680;;;
74485;BMP280;62942;52.462;10.846;2023-11-19T06:04:42;99690;;;
74485;BMP280;62942;52.462;10.846;2023-11-19T06:05:43;99700;;;
74485;BMP280;62942;52.462;10.846;2023-11-19T06:06:52;99710;;;
74485;BMP280;62942;52.462;10.846;2023-11-19T06:08:02;99710;;;
74485;BMP280;62942;52.462;10.846;2023-11-19T06:09:02;99700;;;
74485;BMP280;62942;52.462;10.846;2023-11-19T06:10:12;99700;;;
74485;BMP280;62942;52.462;10.846;2023-11-19T06:11:21;99690;;;
74485;BMP280;62942;52.462;10.846;2023-11-19T06:12:22;99700;;;
74485;BMP280;62942;52.462;10.846;2023-11-19T06:13:22;99700;;;
74485;BMP280;62942;52.462;10.846;2023-11-19T06:14:21;99700;;;
74485;BMP280;62942;52.462;10.846;2023-11-19T06:15:22;99700;;;
74485;BMP280;62942;52.462;10.846;2023-11-19T06:16:32;99700;;;
74485;BMP280;62942;52.462;10.846;2023-11-19T06:17:32;99700;;;
74485;BMP280;62942;52.462;10.846;2023-11-19T06:18:32;99690;;;
74485;BMP280;62942;52.462;10.846;2023-11-19T06:19:32;99700;;;
74485;BMP280;62942;52.462;10.846;2023-11-19T06:20:41;99700;;;
74485;BMP280;62942;52.462;10.846;2023-11-19T06:21:42;99690;;;
74485;BMP280;62942;52.462;10.846;2023-11-19T06:22:42;99690;;;
74485;BMP280;62942;52.462;10.846;2023-11-19T06:23:52;99700;;;
74485;BMP280;62942;52.462;10.846;2023-11-19T06:24:52;99700;;;
74485;BMP280;62942;52.462;10.846;2023-11-19T06:26:02;99700;;;
74485;BMP280;62942;52.462;10.846;2023-11-19T06:27:11;99690;;;
74485;BMP280;62942;52.462;10.846;2023-11-19T06:28:11;99690;;;
74485;BMP280;62942;52.462;10.846;2023-11-19T06:29:11;99690;;;
74485;BMP280;62942;52.462;10.846;2023-11-19T06:30:12;99690;;;
74485;BMP280;62942;52.462;10.846;2023-11-19T06:31:22;99690;;;
74485;BMP280;62942;52.462;10.846;2023-11-19T06:32:22;99690;;;
74485;BMP280;62942;52.462;10.846;2023-11-19T06:33:31;99680;;;
74485;BMP280;62942;52.462;10.846;2023-11-19T06:34:41;99690;;;
74485;BMP280;62942;52.462;10.846;2023-11-19T06:35:42;99700;;;
74485;BMP280;62942;52.462;10.846;2023-11-19T06:36:42;99700;;;
74485;BMP280;62942;52.462;10.846;2023-11-19T06:37:52;99690;;;
74485;BMP280;62942;52.462;10.846;2023-11-19T06:38:52;99690;;;
74485;BMP280;62942;52.462;10.846;2023-11-19T06:40:02;99690;;;
74485;BMP280;62942;52.462;10.846;2023-11-19T06:41:01;99680;;;
74485;BMP280;62942;52.462;10.846;2023-11-19T06:42:02;99690;;;
74485;BMP280;62942;52.462;10.846;2023-11-19T06:43:12;99690;;;
74485;BMP280;62942;52.462;10.846;2023-11-19T06:44:12;99700;;;
74485;BMP280;62942;52.462;10.846;2023-11-19T06:45:12;99690;;;
74485;BMP280;62942;52.462;10.846;2023-11-19T06:46:22;99700;;;
74485;BMP280;62942;52.462;10.846;2023-11-19T06:47:31;99720;;;
74485;BMP280;62942;52.462;10.846;2023-11-19T06:48:32;99700;;;
74485;BMP280;62942;52.462;10.846;2023-11-19T06:49:32;99700;;;
74485;BMP280;62942;52.462;10.846;2023-11-19T06:50:42;99700;;;
74485;BMP280;62942;52.462;10.846;2023-11-19T06:51:51;99720;;;
74485;BMP280;62942;52.462;10.846;2023-11-19T06:52:51;99710;;;
74485;BMP280;62942;52.462;10.846;2023-11-19T06:54:02;99720;;;
74485;BMP280;62942;52.462;10.846;2023-11-19T06:55:02;99720;;;
74485;BMP280;62942;52.462;10.846;2023-11-19T06:56:20;99710;;;
74485;BMP280;62942;52.462;10.846;2023-11-19T06:57:21;99710;;;
74485;BMP280;62942;52.462;10.846;2023-11-19T06:58:21;99720;;;
74485;BMP280;62942;52.462;10.846;2023-11-19T06:59:21;99720;;;